Aérodrome :
LOGIN :

S'inscrire | Disclaimer

   EN    FR    IT 

 










Légende :    VFR   VFR Marginal   IFR   IFR Intensif   IFR Très Intensif
Visi : 
Plafond : 
>= 8 km
>= 3000ft
5 à 8 km
1000 à 3000 ft
1500m à 5 km
500 à 1000 ft
800 à 1500m
200 à 500 ft
< 800m
< 200 ft
Symboles :   Orages  Brouillard  Fortes neiges  Fortes précipitations  Vent > 20 kt
SIGMETs :   Divers  Orages  Givrage  Turbulence  Onde Orograph.  Cendres Volcan.






- Altitude de l'aérodrome : 44 ft
- Code IATA : SOU


EGHI - Southampton

DERNIER METAR :
  • 011950Z VRB01KT CAVOK M01/M02 Q1011

METARs EXPIRÉS :
  • 011920Z 36003KT CAVOK M01/M02 Q1011
  • 011850Z VRB01KT CAVOK M00/M02 Q1010
  • 011820Z 35002KT 9999 FEW015 M00/M02 Q1010
  • 011750Z 35003KT 9999 FEW015 M00/M02 Q1010
  • 011720Z 00000KT 9999 FEW015 00/M01 Q1009
  • 011650Z 35003KT 9999 FEW015 00/M01 Q1009
  • 011620Z 36005KT 9999 FEW015 01/M00 Q1009
  • 011550Z 01003KT 330V030 9999 FEW015 02/M00 Q1009
  • 011520Z 36005KT 9999 FEW016 SCT045 02/00 Q1009

TAF TAF EGHI
Valide du 01 à 18h jusqu'au 01 à 23h UTC


011658Z 0118/0123 02006KT 9999 FEW012
TEMPO 0118/0123 8000
PROB30
TEMPO 0118/0119 BKN012
PROB40
TEMPO 0120/0123 3000 BR BKN002
ATIS : +44 23 8062 7103



MET'MAP, la Météo Aéronautique d'un coup d'oeil ! - Copyright ORBIFLY Décembre 2007 - Disclaimer

ORBIFLY MET'MAP TEAM :

Programmation & Développement : Alexandra Zaïnal
Sur une idée originale de : Baudouin d'Aumeries
Soutien technique & logistique : Manuel Goepfert
Assistance : Marc-Olivier Méhu




SOURCES & CREDITS :

   NOAA